Time;durP1;ratioP1;P1;durP2;ratioP2;P2;SDS_P1;SDS_P2;PMS_P1;PMS_P2;Temp;Humidity;BMP_temperature;BMP_pressure;BME280_temperature;BME280_humidity;BME280_pressure;Samples;Min_cycle;Max_cycle;Signal;HPM_P1;HPM_P2
2020/12/26 00:03:41;;;;;;;15.70;6.68;;;;;;;8.92;100.00;94265.28;10486888;28;20488;-75
2020/12/26 00:08:43;;;;;;;11.90;6.45;;;;;;;8.80;100.00;94244.16;10486454;28;20111;-75
2020/12/26 00:13:45;;;;;;;13.60;5.90;;;;;;;8.86;100.00;94259.13;10486611;28;20029;-75
2020/12/26 00:18:46;;;;;;;10.63;6.00;;;;;;;8.84;100.00;94253.25;10486407;28;20083;-75
2020/12/26 00:23:47;;;;;;;10.52;6.05;;;;;;;8.86;100.00;94268.00;10468481;28;20031;-75
2020/12/26 00:28:47;;;;;;;11.35;6.45;;;;;;;8.89;100.00;94274.69;10486299;28;20037;-75
2020/12/26 00:33:48;;;;;;;19.40;7.22;;;;;;;8.82;100.00;94285.69;10486918;28;20027;-75
2020/12/26 00:38:48;;;;;;;17.67;7.80;;;;;;;8.95;100.00;94268.22;10514749;28;20032;-75
2020/12/26 00:43:48;;;;;;;21.63;8.57;;;;;;;8.68;100.00;94296.19;10533896;28;20032;-75
2020/12/26 00:48:49;;;;;;;18.97;9.90;;;;;;;8.86;100.00;94261.81;10518135;28;20263;-74
2020/12/26 00:53:50;;;;;;;19.17;8.48;;;;;;;8.76;100.00;94294.00;10508768;28;20029;-74
2020/12/26 00:58:50;;;;;;;16.97;8.50;;;;;;;8.84;100.00;94274.69;10503717;28;20035;-75
2020/12/26 01:03:50;;;;;;;16.33;8.57;;;;;;;8.81;100.00;94299.38;10494691;28;20064;-75
2020/12/26 01:08:51;;;;;;;18.77;8.97;;;;;;;8.87;100.00;94290.22;10492973;28;20279;-75
2020/12/26 01:13:51;;;;;;;17.33;8.27;;;;;;;8.92;100.00;94292.91;10492231;28;20432;-74
2020/12/26 01:18:52;;;;;;;15.40;8.30;;;;;;;8.83;100.00;94257.84;10492543;28;20302;-75
2020/12/26 01:23:52;;;;;;;16.23;7.50;;;;;;;8.51;100.00;94296.50;10492929;28;20123;-75
2020/12/26 01:28:52;;;;;;;17.90;7.50;;;;;;;8.55;100.00;94269.94;10491864;28;20277;-75
2020/12/26 01:33:53;;;;;;;13.57;6.97;;;;;;;8.49;100.00;94257.66;10474014;28;20036;-74
2020/12/26 01:38:53;;;;;;;15.87;7.67;;;;;;;8.22;100.00;94272.13;10521535;28;20273;-75
2020/12/26 01:43:55;;;;;;;14.05;7.03;;;;;;;8.37;100.00;94256.06;10532626;28;20731;-75
2020/12/26 01:48:56;;;;;;;13.50;8.23;;;;;;;8.32;100.00;94244.56;10533410;28;20089;-75
2020/12/26 01:53:57;;;;;;;16.92;7.32;;;;;;;8.34;100.00;94245.88;10513875;28;20028;-76
2020/12/26 01:58:58;;;;;;;13.45;7.20;;;;;;;8.22;100.00;94234.66;10533331;28;20754;-75
2020/12/26 02:03:59;;;;;;;14.00;7.18;;;;;;;8.20;100.00;94239.47;10532854;28;20028;-75
2020/12/26 02:09:00;;;;;;;14.20;7.97;;;;;;;8.34;100.00;94242.38;10533065;28;20035;-75
2020/12/26 02:14:00;;;;;;;12.02;7.18;;;;;;;8.29;100.00;94231.69;10532238;28;20028;-75
2020/12/26 02:19:00;;;;;;;17.90;9.13;;;;;;;8.18;100.00;94233.59;10532000;28;20054;-75
2020/12/26 02:24:01;;;;;;;15.33;7.40;;;;;;;7.98;100.00;94237.91;10532827;28;20074;-75
2020/12/26 02:29:02;;;;;;;14.57;6.80;;;;;;;8.07;100.00;94253.41;10531678;28;20117;-75
2020/12/26 02:34:04;;;;;;;13.63;7.22;;;;;;;7.92;100.00;94241.63;10531695;28;20084;-75
2020/12/26 02:39:07;;;;;;;15.60;7.35;;;;;;;7.85;100.00;94251.81;10531708;28;20039;-75
2020/12/26 02:44:08;;;;;;;12.02;6.68;;;;;;;7.86;100.00;94218.63;10531166;28;20020;-75
2020/12/26 02:49:08;;;;;;;13.43;6.82;;;;;;;7.71;100.00;94243.50;10500358;28;20028;-75
2020/12/26 02:54:11;;;;;;;11.98;5.93;;;;;;;7.87;100.00;94242.44;10489599;28;20067;-76
2020/12/26 02:59:12;;;;;;;15.48;7.60;;;;;;;7.86;100.00;94267.59;10488170;28;20031;-74
2020/12/26 03:04:12;;;;;;;18.67;8.33;;;;;;;7.91;100.00;94277.50;10488390;28;20040;-75
2020/12/26 03:09:12;;;;;;;18.70;8.97;;;;;;;7.78;100.00;94278.03;10489017;28;20028;-75
2020/12/26 03:14:13;;;;;;;20.40;8.17;;;;;;;7.78;100.00;94288.72;10470321;28;20021;-74
2020/12/26 03:19:13;;;;;;;17.07;9.80;;;;;;;7.90;100.00;94265.19;10469414;28;20298;-74
2020/12/26 03:24:13;;;;;;;16.27;9.05;;;;;;;7.70;100.00;94271.31;10488544;28;20032;-75
2020/12/26 03:29:14;;;;;;;14.57;8.87;;;;;;;7.70;100.00;94282.84;10487490;28;20090;-75
2020/12/26 03:34:14;;;;;;;15.13;10.13;;;;;;;7.72;100.00;94290.59;10487063;28;20028;-75
2020/12/26 03:39:14;;;;;;;13.43;8.57;;;;;;;7.81;100.00;94266.78;10520512;28;20331;-75
2020/12/26 03:44:15;;;;;;;13.82;8.30;;;;;;;7.74;100.00;94268.94;10529169;28;20284;-75
2020/12/26 03:49:15;;;;;;;11.90;8.43;;;;;;;7.60;100.00;94274.00;10510833;28;20024;-75
2020/12/26 03:54:16;;;;;;;13.25;7.60;;;;;;;7.32;100.00;94266.19;10511268;28;20297;-75
2020/12/26 03:59:17;;;;;;;11.13;6.70;;;;;;;7.35;100.00;94271.03;10528914;28;20032;-74
2020/12/26 04:04:17;;;;;;;10.48;7.15;;;;;;;7.47;100.00;94260.06;10510624;28;20032;-75
2020/12/26 04:09:18;;;;;;;14.57;6.75;;;;;;;7.22;100.00;94278.72;10528942;28;20439;-75
2020/12/26 04:14:18;;;;;;;13.83;7.47;;;;;;;7.31;100.00;94282.47;10528410;28;20051;-75
2020/12/26 04:19:18;;;;;;;13.40;7.67;;;;;;;7.30;100.00;94272.88;10517793;28;20321;-75
2020/12/26 04:24:19;;;;;;;12.73;7.70;;;;;;;7.38;100.00;94279.56;10536725;28;20308;-75
2020/12/26 04:29:21;;;;;;;15.82;8.10;;;;;;;7.48;100.00;94275.03;10537418;28;20024;-75
2020/12/26 04:34:22;;;;;;;14.90;7.90;;;;;;;7.40;100.00;94280.91;10536487;28;20028;-75
2020/12/26 04:39:22;;;;;;;17.70;9.60;;;;;;;7.44;100.00;94278.53;10536095;28;20490;-76
2020/12/26 04:44:24;;;;;;;15.50;10.02;;;;;;;7.43;100.00;94275.03;10536520;28;20024;-76
2020/12/26 04:49:29;;;;;;;21.05;10.90;;;;;;;7.30;100.00;94235.47;10536335;28;20024;-76
2020/12/26 04:54:33;;;;;;;16.45;9.52;;;;;;;6.90;100.00;94263.66;10536703;28;20082;-76
2020/12/26 04:59:34;;;;;;;12.77;7.47;;;;;;;7.08;100.00;94270.41;10518022;28;20048;-76
2020/12/26 05:04:34;;;;;;;19.33;9.38;;;;;;;7.18;100.00;94265.09;10536121;28;20490;-75
2020/12/26 05:09:34;;;;;;;19.00;10.17;;;;;;;7.26;100.00;94261.91;10536059;28;20080;-74
2020/12/26 05:14:35;;;;;;;21.37;9.43;;;;;;;7.06;100.00;94268.00;10497881;28;20031;-75
2020/12/26 05:19:35;;;;;;;15.63;9.70;;;;;;;6.82;100.00;94300.50;10493514;28;20290;-75
2020/12/26 05:24:35;;;;;;;15.83;8.50;;;;;;;6.88;100.00;94274.63;10529616;28;20042;-74
2020/12/26 05:29:41;;;;;;;14.10;7.37;;;;;;;6.86;100.00;94244.66;10524137;28;20028;-75
2020/12/26 05:34:42;;;;;;;12.90;6.78;;;;;;;6.81;100.00;94277.50;10492889;28;20270;-75
2020/12/26 05:39:42;;;;;;;11.57;6.78;;;;;;;6.78;100.00;94270.03;10504013;28;20537;-75
2020/12/26 05:44:43;;;;;;;15.02;6.72;;;;;;;6.86;100.00;94271.38;10533297;28;20024;-75
2020/12/26 05:49:43;;;;;;;13.83;7.47;;;;;;;6.75;100.00;94261.72;10534383;28;20016;-75
2020/12/26 05:54:51;;;;;;;11.73;7.27;;;;;;;6.72;100.00;94275.59;10519201;28;20023;-76
2020/12/26 05:59:54;;;;;;;14.23;6.73;;;;;;;6.87;100.00;94278.34;10491914;28;20297;-76
2020/12/26 06:05:03;;;;;;;14.20;8.00;;;;;;;7.03;100.00;94289.09;10491756;28;20024;-75
2020/12/26 06:10:06;;;;;;;15.25;7.75;;;;;;;7.03;100.00;94268.50;10491503;28;20025;-76
2020/12/26 06:15:07;;;;;;;12.45;6.65;;;;;;;7.00;100.00;94301.91;10491537;28;20035;-76
2020/12/26 06:20:08;;;;;;;11.25;7.07;;;;;;;7.15;100.00;94308.38;10490655;28;20650;-76
2020/12/26 06:25:15;;;;;;;11.52;6.78;;;;;;;7.01;100.00;94313.41;10491382;28;20036;-76
2020/12/26 06:30:16;;;;;;;10.02;6.72;;;;;;;7.06;100.00;94312.59;10490351;28;20102;-75
2020/12/26 06:35:20;;;;;;;17.70;9.63;;;;;;;7.14;100.00;94318.25;10532082;28;20594;-75
2020/12/26 06:40:23;;;;;;;23.45;12.50;;;;;;;7.10;100.00;94308.34;10531741;28;20116;-76
2020/12/26 06:45:33;;;;;;;21.25;12.35;;;;;;;6.90;100.00;94323.22;10532251;28;20082;-76
2020/12/26 06:50:34;;;;;;;29.13;13.60;;;;;;;6.75;100.00;94331.94;10502017;28;20446;-76
2020/12/26 06:55:41;;;;;;;24.88;14.75;;;;;;;6.81;100.00;94319.47;10489936;28;20082;-75
2020/12/26 07:00:41;;;;;;;26.20;15.40;;;;;;;6.74;100.00;94342.91;10488923;28;20588;-75
2020/12/26 07:05:42;;;;;;;25.53;15.03;;;;;;;6.83;100.00;94336.00;10489257;28;20025;-75
2020/12/26 07:10:43;;;;;;;24.75;14.48;;;;;;;6.95;100.00;94327.78;10504782;28;20270;-75
2020/12/26 07:15:43;;;;;;;26.17;14.20;;;;;;;6.67;100.00;94297.75;10488762;28;20031;-73
2020/12/26 07:20:50;;;;;;;24.97;14.37;;;;;;;6.73;100.00;94318.06;10470775;28;20102;-75
2020/12/26 07:25:50;;;;;;;23.50;14.73;;;;;;;6.83;100.00;94296.75;10488566;28;20415;-75
2020/12/26 07:31:17;;;;;;;24.00;13.03;;;;;;;6.82;100.00;94311.19;10488175;28;20012;-75
2020/12/26 07:36:20;;;;;;;25.33;13.52;;;;;;;6.66;100.00;94336.97;10488382;28;20059;-75
2020/12/26 07:41:21;;;;;;;20.33;13.55;;;;;;;6.62;100.00;94322.53;10491321;28;20060;-76
2020/12/26 07:46:21;;;;;;;21.27;14.00;;;;;;;6.81;100.00;94320.25;10534611;28;20115;-75
2020/12/26 07:51:21;;;;;;;24.90;12.95;;;;;;;6.90;100.00;94303.72;10526683;28;20825;-75
2020/12/26 07:56:28;;;;;;;22.57;13.00;;;;;;;6.88;100.00;94313.84;10508146;28;20023;-75
2020/12/26 08:01:28;;;;;;;22.52;13.25;;;;;;;6.98;100.00;94296.00;10526503;28;20024;-75
2020/12/26 08:06:31;;;;;;;18.23;11.37;;;;;;;6.91;100.00;94321.38;10523693;28;20074;-75
2020/12/26 08:11:31;;;;;;;24.33;12.73;;;;;;;6.93;100.00;94314.69;10527686;28;20016;-75
2020/12/26 08:16:32;;;;;;;22.17;12.73;;;;;;;6.98;100.00;94301.34;10526081;28;20040;-75
2020/12/26 08:21:33;;;;;;;28.58;14.15;;;;;;;6.89;100.00;94328.81;10525425;28;20035;-74
2020/12/26 08:26:33;;;;;;;23.52;13.82;;;;;;;6.91;100.00;94306.13;10526102;28;20077;-74
2020/12/26 08:31:36;;;;;;;21.27;12.53;;;;;;;7.01;100.00;94327.53;10527316;28;20490;-74
2020/12/26 08:36:45;;;;;;;21.45;12.68;;;;;;;6.72;100.00;94319.13;10510795;28;20274;-74
2020/12/26 08:41:47;;;;;;;22.92;13.70;;;;;;;6.84;100.00;94317.06;10526436;28;20027;-74
2020/12/26 08:46:48;;;;;;;23.17;14.20;;;;;;;6.86;100.00;94322.13;10537096;28;20031;-74
2020/12/26 08:51:48;;;;;;;23.38;14.38;;;;;;;6.73;100.00;94327.97;10524895;28;20016;-74
2020/12/26 08:56:50;;;;;;;28.90;14.60;;;;;;;6.71;100.00;94330.84;10508649;28;20031;-74
2020/12/26 09:01:53;;;;;;;25.35;15.10;;;;;;;6.87;100.00;94307.72;10529178;28;20074;-75
2020/12/26 09:06:54;;;;;;;26.83;17.23;;;;;;;6.94;100.00;94297.59;10536248;28;20028;-74
2020/12/26 09:12:04;;;;;;;25.80;14.57;;;;;;;7.11;100.00;94300.06;10484690;28;20055;-75
2020/12/26 09:17:05;;;;;;;24.67;14.38;;;;;;;7.11;100.00;94299.28;10526885;28;20044;-75
2020/12/26 09:22:10;;;;;;;26.77;15.85;;;;;;;7.06;100.00;94307.25;10531164;28;20040;-75
2020/12/26 09:27:21;;;;;;;31.85;16.13;;;;;;;7.15;100.00;94295.81;10534579;28;20052;-75
2020/12/26 09:32:22;;;;;;;24.63;14.75;;;;;;;7.28;100.00;94289.16;10516590;28;20082;-76
2020/12/26 09:37:23;;;;;;;24.15;13.73;;;;;;;7.26;100.00;94291.31;10534989;28;20082;-75
2020/12/26 09:42:24;;;;;;;27.43;13.57;;;;;;;7.42;100.00;94305.50;10534210;28;20115;-74
2020/12/26 09:47:25;;;;;;;30.17;13.98;;;;;;;7.52;100.00;94275.31;10534726;28;20332;-74
2020/12/26 09:52:25;;;;;;;25.25;15.02;;;;;;;7.35;100.00;94294.25;10534844;28;20309;-74
2020/12/26 09:57:28;;;;;;;24.47;14.03;;;;;;;7.47;100.00;94288.69;10533512;28;20024;-74
2020/12/26 10:02:28;;;;;;;24.33;13.45;;;;;;;7.64;100.00;94283.09;10515241;28;20278;-75
2020/12/26 10:07:28;;;;;;;21.97;13.10;;;;;;;7.83;100.00;94283.38;10533490;28;20032;-74
2020/12/26 10:12:29;;;;;;;27.17;13.87;;;;;;;7.69;100.00;94283.09;10532664;28;20049;-75
2020/12/26 10:17:29;;;;;;;23.20;12.23;;;;;;;7.91;100.00;94269.47;10498431;28;20049;-75
2020/12/26 10:22:30;;;;;;;22.53;11.63;;;;;;;8.03;100.00;94275.34;10532820;28;20073;-74
2020/12/26 10:27:30;;;;;;;21.07;12.13;;;;;;;8.03;100.00;94263.84;10528571;28;20274;-75
2020/12/26 10:32:30;;;;;;;21.90;12.53;;;;;;;7.82;100.00;94293.28;10493140;28;20498;-75
2020/12/26 10:37:31;;;;;;;31.17;14.13;;;;;;;7.87;100.00;94273.75;10505504;28;20020;-75
2020/12/26 10:42:32;;;;;;;23.73;12.68;;;;;;;7.95;100.00;94275.88;10528322;28;20294;-75
2020/12/26 10:47:32;;;;;;;35.80;14.65;;;;;;;8.16;100.00;94275.88;10529096;28;20027;-75
2020/12/26 10:52:32;;;;;;;27.97;14.90;;;;;;;8.15;100.00;94284.97;10529199;28;20113;-74
2020/12/26 10:57:33;;;;;;;28.97;14.13;;;;;;;8.03;100.00;94269.19;10508701;28;20020;-75
2020/12/26 11:02:33;;;;;;;26.07;13.93;;;;;;;7.92;100.00;94273.75;10521922;28;20016;-75
2020/12/26 11:07:34;;;;;;;26.95;16.13;;;;;;;7.82;100.00;94276.44;10528403;28;20026;-75
2020/12/26 11:12:34;;;;;;;25.73;13.20;;;;;;;7.94;100.00;94294.88;10523671;28;20024;-74
2020/12/26 11:17:35;;;;;;;28.93;14.27;;;;;;;7.87;100.00;94297.84;10509616;28;20048;-75
2020/12/26 11:22:35;;;;;;;23.47;13.27;;;;;;;7.88;100.00;94283.38;10529434;28;20107;-75
2020/12/26 11:27:35;;;;;;;26.50;14.90;;;;;;;8.08;100.00;94271.88;10511623;28;20278;-75
2020/12/26 11:32:36;;;;;;;29.33;13.83;;;;;;;8.23;100.00;94268.38;10530111;28;20273;-75
2020/12/26 11:37:36;;;;;;;25.15;13.95;;;;;;;8.42;100.00;94265.16;10511899;28;20023;-76
2020/12/26 11:42:39;;;;;;;23.97;14.10;;;;;;;8.38;100.00;94271.03;10511975;28;20024;-75
2020/12/26 11:47:39;;;;;;;35.33;17.58;;;;;;;8.45;100.00;94280.69;10511984;28;20063;-76
2020/12/26 11:52:39;;;;;;;35.23;16.90;;;;;;;8.46;100.00;94263.56;10529678;28;20105;-75
2020/12/26 11:57:40;;;;;;;33.53;17.40;;;;;;;8.51;100.00;94269.72;10524127;28;20510;-74
2020/12/26 12:02:41;;;;;;;38.37;19.77;;;;;;;8.70;100.00;94266.44;10525804;28;20035;-74
2020/12/26 12:07:41;;;;;;;39.28;19.05;;;;;;;8.83;100.00;94276.59;10524179;28;20051;-74
2020/12/26 12:12:42;;;;;;;38.38;21.25;;;;;;;8.82;100.00;94291.06;10505844;28;20035;-74
2020/12/26 12:17:42;;;;;;;42.78;22.00;;;;;;;8.55;100.00;94278.00;10512838;28;20051;-74
2020/12/26 12:22:43;;;;;;;42.05;19.90;;;;;;;8.63;100.00;94285.47;10504706;28;20415;-74
2020/12/26 12:27:43;;;;;;;42.33;22.03;;;;;;;8.45;100.00;94283.38;10469373;28;20419;-74
2020/12/26 12:32:44;;;;;;;33.73;19.60;;;;;;;8.52;100.00;94308.00;10494603;28;20505;-74
2020/12/26 12:37:48;;;;;;;47.47;24.33;;;;;;;8.59;100.00;94300.47;10510545;28;20081;-74
2020/12/26 12:42:49;;;;;;;46.60;24.48;;;;;;;8.66;100.00;94308.25;10534328;28;20099;-74
2020/12/26 12:47:49;;;;;;;41.87;20.77;;;;;;;8.66;100.00;94302.88;10534691;28;20094;-74
2020/12/26 12:52:50;;;;;;;39.08;21.45;;;;;;;8.76;100.00;94294.00;10535897;28;20316;-74
2020/12/26 12:57:50;;;;;;;41.65;20.60;;;;;;;8.50;100.00;94323.56;10536406;28;20035;-74
2020/12/26 13:02:50;;;;;;;43.70;19.97;;;;;;;8.51;100.00;94311.75;10517917;28;20028;-74
2020/12/26 13:07:51;;;;;;;40.57;20.23;;;;;;;8.42;100.00;94321.38;10535600;28;20039;-75
2020/12/26 13:12:51;;;;;;;39.00;21.67;;;;;;;8.08;100.00;94325.41;10536033;28;20016;-74
2020/12/26 13:17:52;;;;;;;51.67;28.93;;;;;;;8.25;100.00;94345.72;10535716;28;20048;-74
2020/12/26 13:22:52;;;;;;;45.40;23.07;;;;;;;8.17;100.00;94339.06;10535004;28;20793;-75
2020/12/26 13:27:52;;;;;;;53.10;24.53;;;;;;;8.30;100.00;94351.09;10515749;28;20283;-75
2020/12/26 13:32:53;;;;;;;51.88;24.38;;;;;;;8.39;100.00;94349.50;10521596;28;20032;-74
2020/12/26 13:37:53;;;;;;;55.33;24.33;;;;;;;8.54;100.00;94356.75;10503278;28;20546;-75
2020/12/26 13:42:54;;;;;;;50.77;25.80;;;;;;;8.55;100.00;94367.19;10532531;28;20343;-75
2020/12/26 13:47:54;;;;;;;53.33;27.08;;;;;;;8.05;100.00;94379.44;10534097;28;20292;-74
2020/12/26 13:52:54;;;;;;;71.27;27.87;;;;;;;8.15;100.00;94395.53;10533630;28;20024;-74
2020/12/26 13:57:55;;;;;;;51.83;24.63;;;;;;;7.99;100.00;94391.22;10533469;28;20032;-75
2020/12/26 14:02:55;;;;;;;49.50;24.15;;;;;;;7.84;100.00;94390.13;10515544;28;20020;-75
2020/12/26 14:07:59;;;;;;;46.37;23.23;;;;;;;8.08;100.00;94389.63;10528065;28;20111;-74
2020/12/26 14:12:59;;;;;;;42.78;21.92;;;;;;;8.20;100.00;94408.94;10514346;28;20028;-75
2020/12/26 14:17:59;;;;;;;43.13;23.20;;;;;;;8.17;100.00;94419.34;10505363;28;20048;-76
2020/12/26 14:23:00;;;;;;;22.23;11.38;;;;;;;8.13;100.00;94413.72;10492637;28;20298;-76
2020/12/26 14:28:00;;;;;;;17.57;9.03;;;;;;;7.97;100.00;94436.19;10473023;28;20536;-75
2020/12/26 14:33:01;;;;;;;15.30;8.50;;;;;;;7.70;100.00;94456.69;10483487;28;20024;-76
2020/12/26 14:38:03;;;;;;;17.15;8.50;;;;;;;7.67;100.00;94445.72;10460660;28;20037;-75
2020/12/26 14:43:04;;;;;;;15.13;9.27;;;;;;;7.45;100.00;94448.56;10464963;28;20037;-74
2020/12/26 14:48:08;;;;;;;16.65;8.70;;;;;;;7.08;100.00;94458.25;10480387;28;20024;-75
2020/12/26 14:53:09;;;;;;;12.25;6.60;;;;;;;6.76;100.00;94467.09;10454734;28;20029;-78
2020/12/26 14:58:09;;;;;;;9.83;4.73;;;;;;;6.92;100.00;94478.72;10478286;28;20029;-77
2020/12/26 15:03:09;;;;;;;8.77;4.85;;;;;;;6.77;100.00;94474.06;10488105;28;20290;-77
2020/12/26 15:08:10;;;;;;;7.63;4.30;;;;;;;6.78;100.00;94473.00;10447612;28;20032;-77
2020/12/26 15:13:10;;;;;;;6.25;4.18;;;;;;;7.00;100.00;94483.59;10445393;28;20028;-77
2020/12/26 15:18:10;;;;;;;8.57;4.77;;;;;;;6.44;100.00;94499.16;10464294;28;20049;-78
2020/12/26 15:23:11;;;;;;;7.38;3.90;;;;;;;6.29;100.00;94500.63;10488756;28;20058;-79
2020/12/26 15:28:11;;;;;;;6.57;4.20;;;;;;;6.30;100.00;94496.88;10470055;28;20115;-77
2020/12/26 15:33:12;;;;;;;8.18;4.85;;;;;;;6.32;100.00;94496.63;10470635;28;20025;-78
2020/12/26 15:38:12;;;;;;;8.73;4.60;;;;;;;6.39;100.00;94505.25;10488222;28;20043;-78
2020/12/26 15:43:12;;;;;;;9.13;5.23;;;;;;;6.32;100.00;94516.13;10513470;28;20300;-78
2020/12/26 15:48:13;;;;;;;6.50;4.10;;;;;;;6.20;100.00;94494.13;10529856;28;20028;-78
2020/12/26 15:53:13;;;;;;;8.35;4.20;;;;;;;5.48;100.00;94547.38;10529575;28;20641;-77
2020/12/26 15:58:14;;;;;;;5.77;3.60;;;;;;;5.14;100.00;94549.28;10496054;28;20547;-78
2020/12/26 16:03:14;;;;;;;9.43;4.97;;;;;;;4.96;100.00;94548.47;10469417;28;20287;-76
2020/12/26 16:08:15;;;;;;;10.00;3.73;;;;;;;4.82;100.00;94531.19;10487734;28;20561;-77
2020/12/26 16:13:15;;;;;;;9.38;4.32;;;;;;;4.91;100.00;94556.38;10507240;28;20314;-78
2020/12/26 16:18:17;;;;;;;8.37;4.10;;;;;;;4.85;100.00;94556.53;10477934;28;20045;-78
2020/12/26 16:23:17;;;;;;;6.30;3.97;;;;;;;4.59;100.00;94556.91;10496565;28;20654;-78
2020/12/26 16:28:17;;;;;;;6.17;3.60;;;;;;;4.86;100.00;94555.50;10496277;28;20032;-78
2020/12/26 16:33:19;;;;;;;7.03;4.00;;;;;;;4.84;100.00;94576.22;10495812;28;20024;-78
2020/12/26 16:38:19;;;;;;;9.70;4.90;;;;;;;4.76;100.00;94574.78;10530145;28;20028;-78
2020/12/26 16:43:19;;;;;;;5.83;4.50;;;;;;;4.68;100.00;94594.59;10518841;28;20032;-78
2020/12/26 16:48:20;;;;;;;9.50;5.33;;;;;;;4.91;100.00;94606.97;10536223;28;20285;-78
2020/12/26 16:53:20;;;;;;;6.38;3.97;;;;;;;4.85;100.00;94610.59;10510506;28;20027;-77
2020/12/26 16:58:22;;;;;;;9.67;5.20;;;;;;;4.91;100.00;94628.28;10512936;28;20399;-76
2020/12/26 17:03:23;;;;;;;10.00;4.80;;;;;;;4.94;100.00;94611.81;10506199;28;20028;-76
2020/12/26 17:08:23;;;;;;;8.53;4.30;;;;;;;4.87;100.00;94621.00;10552558;28;20429;-76
2020/12/26 17:13:23;;;;;;;9.90;3.83;;;;;;;4.88;100.00;94625.28;10527345;28;20635;-76
2020/12/26 17:18:24;;;;;;;8.95;4.10;;;;;;;4.71;100.00;94641.22;10531205;28;20067;-75
2020/12/26 17:23:24;;;;;;;7.82;4.28;;;;;;;4.54;100.00;94631.34;10506927;28;20039;-76
2020/12/26 17:28:26;;;;;;;6.57;4.18;;;;;;;4.38;100.00;94632.09;10514304;28;20117;-76
2020/12/26 17:33:26;;;;;;;8.23;4.35;;;;;;;4.47;100.00;94621.91;10532452;28;20409;-76
2020/12/26 17:38:26;;;;;;;12.43;5.15;;;;;;;4.73;100.00;94629.31;10533257;28;20027;-76
2020/12/26 17:43:27;;;;;;;8.85;4.85;;;;;;;4.75;100.00;94634.38;10533666;28;20032;-77
2020/12/26 17:48:27;;;;;;;8.10;4.50;;;;;;;4.65;100.00;94635.00;10533390;28;20028;-77
2020/12/26 17:53:28;;;;;;;9.05;4.68;;;;;;;4.70;100.00;94640.44;10533203;28;20031;-76
2020/12/26 17:58:28;;;;;;;8.75;4.57;;;;;;;4.68;100.00;94650.50;10527876;28;20028;-76
2020/12/26 18:03:29;;;;;;;10.60;4.23;;;;;;;4.94;100.00;94657.09;10508611;28;20032;-77
2020/12/26 18:08:29;;;;;;;10.38;5.90;;;;;;;4.71;100.00;94646.56;10528409;28;20027;-76
2020/12/26 18:13:31;;;;;;;9.95;4.63;;;;;;;4.72;100.00;94667.63;10532692;28;20054;-75
2020/12/26 18:18:32;;;;;;;9.05;4.45;;;;;;;4.88;100.00;94657.25;10526315;28;20131;-76
2020/12/26 18:23:33;;;;;;;8.23;4.53;;;;;;;4.85;100.00;94663.06;10522211;28;20032;-76
2020/12/26 18:28:33;;;;;;;13.98;5.18;;;;;;;4.87;100.00;94672.41;10527471;28;20034;-76
2020/12/26 18:33:34;;;;;;;8.45;4.90;;;;;;;5.09;100.00;94675.22;10529077;28;20123;-75
2020/12/26 18:38:36;;;;;;;12.60;5.47;;;;;;;5.24;100.00;94677.31;10529335;28;20074;-75
2020/12/26 18:43:37;;;;;;;10.48;5.88;;;;;;;4.82;100.00;94685.63;10532481;28;20024;-75
2020/12/26 18:48:37;;;;;;;14.70;7.07;;;;;;;4.99;100.00;94700.84;10508632;28;20042;-74
2020/12/26 18:53:38;;;;;;;12.73;7.18;;;;;;;4.86;100.00;94708.06;10530545;28;20035;-75
2020/12/26 18:58:39;;;;;;;13.80;7.60;;;;;;;4.80;100.00;94698.38;10508977;28;20085;-75
2020/12/26 19:03:40;;;;;;;16.02;7.35;;;;;;;4.89;100.00;94698.81;10520252;28;20032;-76
2020/12/26 19:08:41;;;;;;;10.77;5.07;;;;;;;4.89;100.00;94720.91;10525548;28;20915;-76
2020/12/26 19:13:41;;;;;;;6.68;4.28;;;;;;;4.92;100.00;94723.09;10519386;28;20027;-77
2020/12/26 19:18:42;;;;;;;13.85;3.45;;;;;;;4.93;100.00;94739.91;10525215;28;20051;-76
2020/12/26 19:23:42;;;;;;;13.85;8.27;;;;;;;4.88;100.00;94735.25;10511352;28;20535;-77
2020/12/26 19:28:44;;;;;;;5.60;4.28;;;;;;;4.86;100.00;94744.56;10509020;28;20558;-77
2020/12/26 19:33:44;;;;;;;6.88;4.82;;;;;;;4.67;100.00;94768.66;10524484;28;20024;-77
2020/12/26 19:38:44;;;;;;;15.37;5.40;;;;;;;4.49;100.00;94766.97;10522452;28;20525;-76
2020/12/26 19:43:45;;;;;;;10.87;5.17;;;;;;;4.50;100.00;94767.78;10525651;28;20297;-77
2020/12/26 19:48:45;;;;;;;11.07;5.35;;;;;;;4.33;100.00;94741.88;10523243;28;20101;-77
2020/12/26 19:53:46;;;;;;;12.23;4.47;;;;;;;4.52;100.00;94747.88;10526010;28;20111;-76
2020/12/26 19:58:46;;;;;;;6.17;4.10;;;;;;;4.34;100.00;94748.84;10523030;28;20475;-77
2020/12/26 20:03:47;;;;;;;10.77;4.95;;;;;;;4.00;100.00;94750.47;10521465;28;20558;-77
2020/12/26 20:08:47;;;;;;;7.30;4.33;;;;;;;3.78;100.00;94753.69;10515153;28;20407;-77
2020/12/26 20:13:47;;;;;;;7.43;4.10;;;;;;;3.59;100.00;94756.44;10507663;28;20281;-77
2020/12/26 20:18:48;;;;;;;6.33;3.83;;;;;;;3.55;100.00;94754.47;10523515;28;20044;-77
2020/12/26 20:23:49;;;;;;;7.80;4.45;;;;;;;3.59;100.00;94758.31;10525264;28;20040;-77
2020/12/26 20:28:49;;;;;;;7.22;4.07;;;;;;;3.67;100.00;94765.94;10523315;28;20824;-76
2020/12/26 20:33:50;;;;;;;8.80;4.25;;;;;;;3.86;100.00;94765.84;10503542;28;20026;-76
2020/12/26 20:38:50;;;;;;;8.85;5.25;;;;;;;3.68;100.00;94764.09;10521320;28;20471;-76
2020/12/26 20:43:51;;;;;;;8.97;5.37;;;;;;;3.62;100.00;94780.94;10521918;28;20028;-76
2020/12/26 20:48:52;;;;;;;8.90;4.50;;;;;;;3.66;100.00;94784.78;10527503;28;20630;-76
2020/12/26 20:53:52;;;;;;;5.07;3.30;;;;;;;3.65;100.00;94793.78;10527441;28;20020;-76
2020/12/26 20:58:53;;;;;;;6.40;3.72;;;;;;;3.83;100.00;94795.53;10530884;28;20054;-76
2020/12/26 21:03:53;;;;;;;8.97;4.93;;;;;;;4.06;100.00;94792.91;10505042;28;20039;-76
2020/12/26 21:08:54;;;;;;;7.77;3.97;;;;;;;4.18;100.00;94800.06;10497589;28;20040;-75
2020/12/26 21:13:54;;;;;;;7.10;4.53;;;;;;;4.31;100.00;94799.03;10497940;28;20016;-76
2020/12/26 21:18:54;;;;;;;8.73;4.00;;;;;;;4.32;100.00;94798.00;10482138;28;20054;-77
2020/12/26 21:23:55;;;;;;;7.23;3.90;;;;;;;4.22;100.00;94810.03;10528549;28;20302;-75
2020/12/26 21:28:56;;;;;;;7.00;3.72;;;;;;;3.73;100.00;94802.22;10494088;28;20035;-76
2020/12/26 21:33:56;;;;;;;6.85;4.05;;;;;;;3.69;100.00;94808.22;10493399;28;20484;-76
2020/12/26 21:38:57;;;;;;;5.18;3.88;;;;;;;3.82;100.00;94809.88;10493002;28;20071;-76
2020/12/26 21:43:57;;;;;;;6.53;3.53;;;;;;;4.05;100.00;94809.09;10493187;28;20112;-76
2020/12/26 21:48:58;;;;;;;5.10;3.22;;;;;;;4.16;100.00;94799.50;10492771;28;20043;-76
2020/12/26 21:53:58;;;;;;;7.72;3.92;;;;;;;4.24;100.00;94818.59;10492436;28;20030;-76
2020/12/26 21:58:58;;;;;;;7.77;3.90;;;;;;;4.35;100.00;94802.84;10492390;28;20384;-75
2020/12/26 22:03:59;;;;;;;9.23;3.70;;;;;;;4.34;100.00;94806.53;10492046;28;20321;-76
2020/12/26 22:08:59;;;;;;;7.77;3.93;;;;;;;4.02;100.00;94814.84;10490423;28;20047;-76
2020/12/26 22:13:59;;;;;;;17.07;8.57;;;;;;;4.26;100.00;94802.41;10491921;28;20024;-75
2020/12/26 22:19:00;;;;;;;14.67;7.60;;;;;;;4.29;100.00;94809.91;10491107;28;20307;-76
2020/12/26 22:24:00;;;;;;;12.18;4.95;;;;;;;4.00;100.00;94799.13;10491238;28;20327;-76
2020/12/26 22:29:00;;;;;;;13.57;6.00;;;;;;;4.09;100.00;94799.63;10491875;28;20036;-76
2020/12/26 22:34:01;;;;;;;10.00;6.07;;;;;;;3.76;100.00;94798.31;10491428;28;20027;-76
2020/12/26 22:39:02;;;;;;;11.80;4.82;;;;;;;3.42;100.00;94784.72;10490923;28;20097;-75
2020/12/26 22:44:02;;;;;;;8.98;5.15;;;;;;;3.18;100.00;94781.16;10490231;28;20536;-76
2020/12/26 22:49:02;;;;;;;9.80;5.03;;;;;;;3.18;100.00;94768.72;10490273;28;20032;-75
2020/12/26 22:54:03;;;;;;;7.68;4.43;;;;;;;3.35;100.00;94773.34;10489676;28;20025;-75
2020/12/26 22:59:03;;;;;;;8.07;3.50;;;;;;;3.57;100.00;94768.34;10489588;28;20032;-75
2020/12/26 23:04:04;;;;;;;8.57;4.30;;;;;;;3.54;100.00;94782.06;10489617;28;20036;-75